sensor_id;sensor_type;location;lat;lon;timestamp;pressure;altitude;pressure_sealevel;temperature;humidity
60427;BME280;46274;47.168;27.604;2022-09-30T00:03:15;99312.34;;;13.15;73.29
60427;BME280;46274;47.168;27.604;2022-09-30T00:09:17;99310.63;;;13.40;72.19
60427;BME280;46274;47.168;27.604;2022-09-30T00:15:19;99300.22;;;13.04;73.29
60427;BME280;46274;47.168;27.604;2022-09-30T00:21:21;99302.53;;;12.47;75.89
60427;BME280;46274;47.168;27.604;2022-09-30T00:27:24;99313.19;;;12.69;74.44
60427;BME280;46274;47.168;27.604;2022-09-30T00:33:26;99306.22;;;11.58;77.65
60427;BME280;46274;47.168;27.604;2022-09-30T00:39:28;99300.66;;;12.61;75.06
60427;BME280;46274;47.168;27.604;2022-09-30T00:45:31;99299.81;;;12.47;75.35
60427;BME280;46274;47.168;27.604;2022-09-30T00:51:44;99298.47;;;11.96;78.29
60427;BME280;46274;47.168;27.604;2022-09-30T00:57:48;99295.84;;;12.43;75.37
60427;BME280;46274;47.168;27.604;2022-09-30T01:03:51;99309.84;;;12.53;74.33
60427;BME280;46274;47.168;27.604;2022-09-30T01:09:56;99265.28;;;12.01;74.88
60427;BME280;46274;47.168;27.604;2022-09-30T01:16:20;99314.44;;;12.59;74.26
60427;BME280;46274;47.168;27.604;2022-09-30T01:47:26;99345.91;;;12.00;78.15
60427;BME280;46274;47.168;27.604;2022-09-30T01:53:38;99349.75;;;12.46;75.71
60427;BME280;46274;47.168;27.604;2022-09-30T01:59:45;99348.69;;;11.79;78.64
60427;BME280;46274;47.168;27.604;2022-09-30T02:05:55;99332.91;;;11.96;76.32
60427;BME280;46274;47.168;27.604;2022-09-30T02:12:06;99365.03;;;11.51;78.41
60427;BME280;46274;47.168;27.604;2022-09-30T02:18:14;99375.16;;;11.70;78.13
60427;BME280;46274;47.168;27.604;2022-09-30T02:24:21;99374.53;;;11.33;79.76
60427;BME280;46274;47.168;27.604;2022-09-30T02:30:26;99372.28;;;11.78;76.76
60427;BME280;46274;47.168;27.604;2022-09-30T02:36:35;99377.56;;;11.52;77.05
60427;BME280;46274;47.168;27.604;2022-09-30T02:42:39;99384.25;;;11.56;79.62
60427;BME280;46274;47.168;27.604;2022-09-30T02:48:47;99383.38;;;11.84;78.60
60427;BME280;46274;47.168;27.604;2022-09-30T02:55:17;99386.72;;;11.86;77.69
60427;BME280;46274;47.168;27.604;2022-09-30T03:01:21;99399.41;;;11.78;78.02
60427;BME280;46274;47.168;27.604;2022-09-30T03:07:23;99400.44;;;11.43;78.90
60427;BME280;46274;47.168;27.604;2022-09-30T03:39:56;99418.63;;;10.71;82.22
60427;BME280;46274;47.168;27.604;2022-09-30T03:45:43;99421.63;;;11.26;79.35
60427;BME280;46274;47.168;27.604;2022-09-30T03:51:47;99422.47;;;11.26;80.09
60427;BME280;46274;47.168;27.604;2022-09-30T03:57:51;99419.25;;;11.44;78.94
60427;BME280;46274;47.168;27.604;2022-09-30T04:03:54;99424.41;;;11.11;79.55
60427;BME280;46274;47.168;27.604;2022-09-30T04:09:56;99440.09;;;10.94;79.73
60427;BME280;46274;47.168;27.604;2022-09-30T04:15:58;99449.00;;;11.59;77.06
60427;BME280;46274;47.168;27.604;2022-09-30T04:22:00;99456.16;;;11.73;76.27
60427;BME280;46274;47.168;27.604;2022-09-30T04:28:02;99461.19;;;11.76;76.34
60427;BME280;46274;47.168;27.604;2022-09-30T04:34:04;99426.66;;;11.57;75.51
60427;BME280;46274;47.168;27.604;2022-09-30T04:40:06;99468.97;;;11.51;77.23
60427;BME280;46274;47.168;27.604;2022-09-30T04:46:10;99477.59;;;11.62;76.98
60427;BME280;46274;47.168;27.604;2022-09-30T04:52:13;99498.00;;;11.86;76.94
60427;BME280;46274;47.168;27.604;2022-09-30T04:58:14;99502.13;;;12.03;76.49
60427;BME280;46274;47.168;27.604;2022-09-30T05:04:17;99478.69;;;11.95;78.86
60427;BME280;46274;47.168;27.604;2022-09-30T05:10:19;99498.34;;;12.04;79.92
60427;BME280;46274;47.168;27.604;2022-09-30T05:16:22;99493.00;;;12.17;78.78
60427;BME280;46274;47.168;27.604;2022-09-30T05:22:25;99501.03;;;11.97;79.76
60427;BME280;46274;47.168;27.604;2022-09-30T05:28:27;99515.94;;;12.56;77.24
60427;BME280;46274;47.168;27.604;2022-09-30T05:34:31;99533.53;;;12.67;77.97
60427;BME280;46274;47.168;27.604;2022-09-30T05:40:36;99543.16;;;12.70;78.22
60427;BME280;46274;47.168;27.604;2022-09-30T05:46:39;99548.88;;;12.88;78.41
60427;BME280;46274;47.168;27.604;2022-09-30T05:52:43;99539.91;;;12.94;76.58
60427;BME280;46274;47.168;27.604;2022-09-30T05:58:45;99555.31;;;12.74;78.55
60427;BME280;46274;47.168;27.604;2022-09-30T06:04:47;99559.47;;;13.24;76.27
60427;BME280;46274;47.168;27.604;2022-09-30T06:10:51;99566.97;;;13.22;78.68
60427;BME280;46274;47.168;27.604;2022-09-30T06:16:53;99559.91;;;13.41;77.96
60427;BME280;46274;47.168;27.604;2022-09-30T06:22:58;99568.72;;;13.70;77.30
60427;BME280;46274;47.168;27.604;2022-09-30T06:29:01;99531.66;;;13.75;76.99
60427;BME280;46274;47.168;27.604;2022-09-30T06:35:03;99581.88;;;14.19;75.38
60427;BME280;46274;47.168;27.604;2022-09-30T06:41:23;99537.63;;;14.37;77.02
60427;BME280;46274;47.168;27.604;2022-09-30T06:54:20;99595.38;;;15.24;74.43
60427;BME280;46274;47.168;27.604;2022-09-30T07:00:24;99611.09;;;15.67;72.81
60427;BME280;46274;47.168;27.604;2022-09-30T07:06:26;99572.22;;;15.72;71.70
60427;BME280;46274;47.168;27.604;2022-09-30T07:12:28;99583.13;;;15.97;71.43
60427;BME280;46274;47.168;27.604;2022-09-30T07:18:30;99589.88;;;16.38;66.95
60427;BME280;46274;47.168;27.604;2022-09-30T07:24:33;99626.06;;;16.77;66.49
60427;BME280;46274;47.168;27.604;2022-09-30T07:30:36;99593.31;;;17.07;65.23
60427;BME280;46274;47.168;27.604;2022-09-30T07:55:33;99658.47;;;18.07;62.66
60427;BME280;46274;47.168;27.604;2022-09-30T08:01:35;99667.69;;;18.37;62.37
60427;BME280;46274;47.168;27.604;2022-09-30T08:07:39;99608.56;;;18.41;60.83
60427;BME280;46274;47.168;27.604;2022-09-30T08:13:41;99616.25;;;18.79;59.59
60427;BME280;46274;47.168;27.604;2022-09-30T08:19:49;99614.22;;;18.98;57.23
60427;BME280;46274;47.168;27.604;2022-09-30T08:25:51;99652.78;;;19.32;56.53
60427;BME280;46274;47.168;27.604;2022-09-30T08:31:53;99628.38;;;19.18;56.83
60427;BME280;46274;47.168;27.604;2022-09-30T08:37:55;99624.72;;;19.87;55.16
60427;BME280;46274;47.168;27.604;2022-09-30T08:56:35;99601.75;;;20.66;53.61
60427;BME280;46274;47.168;27.604;2022-09-30T09:54:40;99566.91;;;22.07;51.76
60427;BME280;46274;47.168;27.604;2022-09-30T10:01:10;99636.41;;;23.37;50.31
60427;BME280;46274;47.168;27.604;2022-09-30T10:07:33;99565.31;;;22.54;52.06
60427;BME280;46274;47.168;27.604;2022-09-30T10:13:49;99625.34;;;23.32;51.42
60427;BME280;46274;47.168;27.604;2022-09-30T11:18:42;99597.31;;;25.07;47.36
60427;BME280;46274;47.168;27.604;2022-09-30T12:23:37;99599.06;;;24.88;42.21
60427;BME280;46274;47.168;27.604;2022-09-30T12:49:12;99590.06;;;25.21;42.17
60427;BME280;46274;47.168;27.604;2022-09-30T12:55:30;99539.34;;;24.51;41.33
60427;BME280;46274;47.168;27.604;2022-09-30T13:28:51;99577.50;;;24.74;40.89
60427;BME280;46274;47.168;27.604;2022-09-30T13:35:47;99562.91;;;25.18;41.41
60427;BME280;46274;47.168;27.604;2022-09-30T13:42:04;99566.50;;;25.19;39.50
60427;BME280;46274;47.168;27.604;2022-09-30T13:48:32;99580.00;;;25.36;40.46
60427;BME280;46274;47.168;27.604;2022-09-30T13:54:38;99578.00;;;24.87;40.73
60427;BME280;46274;47.168;27.604;2022-09-30T14:26:35;99542.03;;;24.76;42.13
60427;BME280;46274;47.168;27.604;2022-09-30T15:58:39;99613.25;;;21.78;54.75
60427;BME280;46274;47.168;27.604;2022-09-30T16:05:00;99612.03;;;21.96;53.20
60427;BME280;46274;47.168;27.604;2022-09-30T19:39:24;99822.47;;;17.80;56.92
60427;BME280;46274;47.168;27.604;2022-09-30T19:59:15;99905.13;;;17.96;57.40
60427;BME280;46274;47.168;27.604;2022-09-30T20:17:56;99846.31;;;17.18;58.17
60427;BME280;46274;47.168;27.604;2022-09-30T20:31:49;99849.22;;;17.23;57.05
60427;BME280;46274;47.168;27.604;2022-09-30T20:57:34;99867.16;;;16.94;59.30
60427;BME280;46274;47.168;27.604;2022-09-30T21:03:52;99882.41;;;16.83;59.83
60427;BME280;46274;47.168;27.604;2022-09-30T21:16:26;99950.72;;;17.21;60.11
60427;BME280;46274;47.168;27.604;2022-09-30T22:08:48;99919.66;;;16.84;61.97
60427;BME280;46274;47.168;27.604;2022-09-30T22:40:54;99930.44;;;17.04;61.65
60427;BME280;46274;47.168;27.604;2022-09-30T22:47:12;99939.84;;;17.15;61.85
60427;BME280;46274;47.168;27.604;2022-09-30T22:53:52;99960.72;;;17.34;62.05
60427;BME280;46274;47.168;27.604;2022-09-30T23:58:08;99955.66;;;16.81;63.55
